createdAt,value
2022-12-08T00:34:03.518Z,56.01
2022-12-08T00:36:32.606Z,55.51
2022-12-08T00:39:01.616Z,55.75
2022-12-08T00:41:48.142Z,55.74
2022-12-08T00:44:18.911Z,55.79
2022-12-08T00:46:49.447Z,55.28
2022-12-08T00:49:19.674Z,55.65
2022-12-08T00:51:48.390Z,55.15
2022-12-08T00:54:17.183Z,54.73
2022-12-08T00:56:46.252Z,54.70
2022-12-08T00:59:14.651Z,55.41
2022-12-08T01:01:46.051Z,54.58
2022-12-08T01:04:16.780Z,55.17
2022-12-08T01:26:20.065Z,53.85
2022-12-08T01:28:49.270Z,54.34
2022-12-08T01:31:21.374Z,55.23
2022-12-08T01:33:50.760Z,54.77
2022-12-08T01:36:23.013Z,54.32
2022-12-08T01:38:52.434Z,54.38
2022-12-08T01:41:25.100Z,54.22
2022-12-08T01:44:04.531Z,54.21
2022-12-08T01:46:34.521Z,53.27
2022-12-08T01:49:06.459Z,53.64
2022-12-08T01:51:42.573Z,53.55
2022-12-08T01:54:11.855Z,53.77
2022-12-08T01:56:49.270Z,53.93
2022-12-08T01:59:18.431Z,54.53
2022-12-08T02:01:52.494Z,53.84
2022-12-08T02:04:21.023Z,54.58
2022-12-08T02:06:50.900Z,54.04
2022-12-08T02:09:20.498Z,54.20
2022-12-08T02:11:59.669Z,53.99
2022-12-08T02:14:28.218Z,53.23
2022-12-08T02:17:05.835Z,53.63
2022-12-08T02:20:13.160Z,54.34
2022-12-08T02:22:53.115Z,53.99
2022-12-08T02:25:31.890Z,53.86
2022-12-08T02:28:17.532Z,54.30
2022-12-08T02:30:55.251Z,53.60
2022-12-08T02:34:01.526Z,53.22
2022-12-08T02:36:38.587Z,54.15
2022-12-08T02:39:21.580Z,54.03
2022-12-08T02:41:57.845Z,53.78
2022-12-08T02:44:34.443Z,54.08
2022-12-08T02:47:09.938Z,53.81
2022-12-08T02:49:38.800Z,53.88
2022-12-08T02:52:30.231Z,52.49
2022-12-08T02:55:03.534Z,52.38
2022-12-08T02:57:43.477Z,52.49
2022-12-08T03:00:17.150Z,53.36
2022-12-08T03:02:57.573Z,52.94
2022-12-08T03:05:43.126Z,53.13
2022-12-08T03:08:18.036Z,52.78
2022-12-08T03:10:53.520Z,52.70
2022-12-08T03:13:24.986Z,52.55
2022-12-08T03:15:56.971Z,51.65
2022-12-08T03:18:33.042Z,52.01
2022-12-08T03:21:02.744Z,51.80
2022-12-08T03:23:33.600Z,52.28
2022-12-08T03:26:09.853Z,52.35
2022-12-08T03:28:39.268Z,51.83
2022-12-08T03:31:13.469Z,52.21
2022-12-08T03:33:46.601Z,52.64
2022-12-08T03:36:16.541Z,52.21
2022-12-08T03:38:48.149Z,52.29
2022-12-08T03:41:20.109Z,52.82
2022-12-08T03:43:49.692Z,52.71
2022-12-08T03:48:48.042Z,52.57
2022-12-08T03:51:18.122Z,51.94
2022-12-08T03:53:48.721Z,52.49
2022-12-08T03:56:23.390Z,52.28
2022-12-08T03:58:51.998Z,52.78
2022-12-08T04:01:21.066Z,52.41
2022-12-08T04:03:49.815Z,52.92
2022-12-08T04:06:19.628Z,52.17
2022-12-08T04:08:50.008Z,52.33
2022-12-08T04:11:19.246Z,52.70
2022-12-08T04:13:48.013Z,53.12
2022-12-08T04:16:18.419Z,53.79
2022-12-08T04:18:47.454Z,53.12
2022-12-08T04:21:16.659Z,52.86
2022-12-08T04:23:46.318Z,53.13
2022-12-08T04:26:16.812Z,53.01
2022-12-08T04:28:45.854Z,53.30
2022-12-08T04:31:14.560Z,53.74
2022-12-08T04:33:43.193Z,53.18
2022-12-08T04:36:12.101Z,53.85
2022-12-08T04:38:40.544Z,53.08
2022-12-08T04:41:09.447Z,53.10
2022-12-08T04:43:39.216Z,52.47
2022-12-08T04:46:09.245Z,52.76
2022-12-08T04:48:39.255Z,53.55
2022-12-08T04:51:08.423Z,52.83
2022-12-08T04:53:36.861Z,53.13
2022-12-08T04:56:06.214Z,53.52
2022-12-08T04:58:34.547Z,52.75
2022-12-08T05:01:04.880Z,53.07
2022-12-08T05:03:33.500Z,53.83
2022-12-08T05:06:02.884Z,52.63
2022-12-08T05:08:31.515Z,53.08
2022-12-08T05:11:04.762Z,53.97
2022-12-08T05:13:33.435Z,53.91
2022-12-08T05:16:08.977Z,54.32
2022-12-08T05:18:37.899Z,54.82
2022-12-08T05:21:07.330Z,54.96
2022-12-08T05:23:36.046Z,54.44
2022-12-08T05:26:04.948Z,54.61
2022-12-08T05:28:42.735Z,54.97
2022-12-08T05:31:15.084Z,55.07
2022-12-08T05:33:43.697Z,54.16
2022-12-08T05:36:15.250Z,55.11
2022-12-08T05:38:44.502Z,55.47
2022-12-08T05:41:17.347Z,55.65
2022-12-08T05:43:46.272Z,56.16
2022-12-08T05:46:16.683Z,55.91
2022-12-08T05:48:45.279Z,55.77
2022-12-08T05:51:19.751Z,55.80
2022-12-08T05:53:49.053Z,56.04
2022-12-08T05:56:18.533Z,55.80
2022-12-08T05:58:47.218Z,55.24
2022-12-08T06:01:25.603Z,55.68
2022-12-08T06:03:54.794Z,55.46
2022-12-08T06:06:23.673Z,55.05
2022-12-08T06:08:52.985Z,55.58
2022-12-08T06:11:23.880Z,55.72
2022-12-08T06:13:53.001Z,55.39
2022-12-08T06:16:23.326Z,55.27
2022-12-08T06:18:51.939Z,55.07
2022-12-08T06:21:21.629Z,55.97
2022-12-08T06:23:51.218Z,56.61
2022-12-08T06:26:20.513Z,56.57
2022-12-08T06:28:49.414Z,56.70
2022-12-08T06:31:19.845Z,57.15
2022-12-08T06:33:50.775Z,56.25
2022-12-08T06:36:21.755Z,56.00
2022-12-08T06:38:50.658Z,55.59
2022-12-08T06:41:19.715Z,56.69
2022-12-08T06:43:48.117Z,56.40
2022-12-08T06:46:19.891Z,56.83
2022-12-08T06:48:50.709Z,56.79
2022-12-08T06:51:22.795Z,56.21
2022-12-08T06:53:51.468Z,56.01
2022-12-08T06:56:20.581Z,55.92
2022-12-08T06:58:52.697Z,55.58
2022-12-08T07:01:22.004Z,55.92
2022-12-08T07:03:52.175Z,54.73
2022-12-08T07:06:24.174Z,54.09
2022-12-08T07:08:53.287Z,53.87
2022-12-08T07:11:22.822Z,53.35
2022-12-08T07:13:51.943Z,53.50
2022-12-08T07:16:21.104Z,53.11
2022-12-08T07:18:51.363Z,53.01
2022-12-08T07:21:20.515Z,53.01
2022-12-08T07:23:57.377Z,52.95
2022-12-08T07:26:27.411Z,52.72
2022-12-08T07:28:55.892Z,52.94
2022-12-08T07:31:26.787Z,53.19
2022-12-08T07:33:57.388Z,52.91
2022-12-08T07:36:26.755Z,52.94
2022-12-08T07:38:55.702Z,52.27
2022-12-08T07:41:26.279Z,52.34
2022-12-08T07:43:55.500Z,52.06
2022-12-08T07:46:26.483Z,51.77
2022-12-08T07:48:57.142Z,51.93
2022-12-08T07:51:26.197Z,51.56
2022-12-08T07:53:55.409Z,51.64
2022-12-08T07:56:24.639Z,50.56
2022-12-08T07:58:53.529Z,51.39
2022-12-08T08:01:25.306Z,51.41
2022-12-08T08:03:57.200Z,50.97
2022-12-08T08:06:26.306Z,51.46
2022-12-08T08:08:54.940Z,50.83
2022-12-08T08:11:24.562Z,50.99
2022-12-08T08:13:53.736Z,51.23
2022-12-08T08:16:22.734Z,52.19
2022-12-08T08:18:52.517Z,51.77
2022-12-08T08:24:12.366Z,52.32
2022-12-08T08:26:41.146Z,52.38
2022-12-08T08:29:09.583Z,52.27
2022-12-08T08:31:38.565Z,52.70
2022-12-08T08:34:07.177Z,53.67
2022-12-08T08:36:37.627Z,53.72
2022-12-08T08:39:06.354Z,54.35
2022-12-08T08:41:35.483Z,54.58
2022-12-08T08:44:04.056Z,54.48
2022-12-08T08:46:33.253Z,54.92
2022-12-08T08:49:02.347Z,55.43
2022-12-08T08:51:31.257Z,54.65
2022-12-08T08:54:01.401Z,54.62
2022-12-08T08:56:30.193Z,54.27
2022-12-08T08:58:58.732Z,55.28
2022-12-08T09:01:29.419Z,54.13
2022-12-08T09:03:58.355Z,53.82
2022-12-08T09:06:28.420Z,54.44
2022-12-08T09:08:57.439Z,53.93
2022-12-08T09:11:27.946Z,53.92
2022-12-08T09:13:56.822Z,54.21
2022-12-08T09:16:25.652Z,53.15
2022-12-08T09:18:54.293Z,53.76
2022-12-08T09:21:26.033Z,54.26
2022-12-08T09:23:57.198Z,54.13
2022-12-08T09:26:28.908Z,54.34
2022-12-08T09:28:58.147Z,54.22
2022-12-08T09:31:27.542Z,54.03
2022-12-08T09:33:56.429Z,54.91
2022-12-08T09:36:25.339Z,54.92
2022-12-08T09:38:54.850Z,55.36
2022-12-08T09:41:38.828Z,55.13
2022-12-08T09:44:31.677Z,55.23
2022-12-08T09:47:03.110Z,55.48
2022-12-08T09:49:39.063Z,55.78
2022-12-08T09:52:21.237Z,55.56
2022-12-08T09:54:49.919Z,54.96
2022-12-08T09:57:23.669Z,54.77
2022-12-08T09:59:56.778Z,54.86
2022-12-08T10:02:28.021Z,54.19
2022-12-08T10:04:57.806Z,54.11
2022-12-08T10:07:36.809Z,53.55
2022-12-08T10:10:15.247Z,53.49
2022-12-08T10:12:53.115Z,53.23
2022-12-08T10:15:39.350Z,53.21
2022-12-08T10:18:16.334Z,53.00
2022-12-08T10:20:47.464Z,53.30
2022-12-08T10:23:25.661Z,53.30
2022-12-08T10:26:01.926Z,53.43
2022-12-08T10:28:33.106Z,52.66
2022-12-08T10:31:02.875Z,53.68
2022-12-08T10:33:33.959Z,54.06
2022-12-08T10:36:04.896Z,54.03
2022-12-08T10:38:35.594Z,53.50
2022-12-08T10:41:08.391Z,53.65
2022-12-08T10:43:44.045Z,53.11
2022-12-08T10:46:15.038Z,54.15
2022-12-08T10:48:55.207Z,53.98
2022-12-08T10:51:26.493Z,54.21
2022-12-08T10:53:55.549Z,53.78
2022-12-08T10:56:28.769Z,53.87
2022-12-08T10:59:15.818Z,53.88
2022-12-08T11:01:48.446Z,53.81
2022-12-08T11:04:20.546Z,54.10
2022-12-08T11:06:50.864Z,54.23
2022-12-08T11:09:36.681Z,54.43
2022-12-08T11:12:09.608Z,54.85
2022-12-08T11:14:50.798Z,54.13
2022-12-08T11:17:26.843Z,54.57
2022-12-08T11:19:59.573Z,54.40
2022-12-08T11:22:32.726Z,54.16
2022-12-08T11:25:04.520Z,54.02
2022-12-08T11:27:35.029Z,54.14
2022-12-08T11:30:15.385Z,54.06
2022-12-08T11:32:46.073Z,54.22
2022-12-08T11:35:24.160Z,54.36
2022-12-08T11:38:03.106Z,54.80
2022-12-08T11:40:45.127Z,54.12
2022-12-08T11:43:20.136Z,54.97
2022-12-08T11:45:57.592Z,54.97
2022-12-08T11:48:31.624Z,55.11
2022-12-08T11:51:25.810Z,55.03
2022-12-08T11:54:11.488Z,54.93
2022-12-08T11:56:44.006Z,55.18
2022-12-08T11:59:21.052Z,55.48
2022-12-08T12:01:52.283Z,55.07
2022-12-08T12:04:27.987Z,55.33
2022-12-08T12:07:32.434Z,55.15
2022-12-08T12:10:26.559Z,55.13
2022-12-08T12:13:09.565Z,55.27
2022-12-08T12:16:06.652Z,55.06
2022-12-08T12:18:45.530Z,56.20
2022-12-08T12:21:19.823Z,56.49
2022-12-08T12:23:54.760Z,56.20
2022-12-08T12:26:26.259Z,56.08
2022-12-08T12:29:01.157Z,56.25
2022-12-08T12:31:32.624Z,56.26
2022-12-08T12:34:09.750Z,55.82
2022-12-08T12:36:55.758Z,56.18
2022-12-08T12:39:28.672Z,56.80
2022-12-08T12:41:59.086Z,58.52
2022-12-08T12:44:41.377Z,57.67
2022-12-08T12:47:16.011Z,57.86
2022-12-08T12:50:05.986Z,57.89
2022-12-08T12:52:39.897Z,57.72
2022-12-08T12:55:53.484Z,57.42
2022-12-08T12:58:50.940Z,57.35
2022-12-08T13:01:52.719Z,57.72
2022-12-08T13:04:29.352Z,57.63
2022-12-08T13:07:00.424Z,58.23
2022-12-08T13:09:34.388Z,58.75
2022-12-08T13:12:11.459Z,58.99
2022-12-08T13:14:47.952Z,58.99
2022-12-08T13:17:21.931Z,59.26
2022-12-08T13:19:54.127Z,59.12
2022-12-08T13:23:11.265Z,58.80
2022-12-08T13:26:12.436Z,58.58
2022-12-08T13:29:15.108Z,58.69
2022-12-08T13:31:50.473Z,58.85
2022-12-08T13:34:29.809Z,58.99
2022-12-08T13:37:16.026Z,59.22
2022-12-08T13:39:50.866Z,59.08
2022-12-08T13:42:30.731Z,59.26
2022-12-08T13:45:39.736Z,59.20
2022-12-08T13:53:10.267Z,59.20
2022-12-08T13:54:52.683Z,59.56
2022-12-08T13:57:09.946Z,59.83
2022-12-08T13:59:36.689Z,59.66
2022-12-08T14:02:13.958Z,59.90
2022-12-08T14:05:16.901Z,60.18
2022-12-08T14:07:37.884Z,59.67
2022-12-08T14:10:09.956Z,59.83
2022-12-08T14:12:38.890Z,59.76
2022-12-08T14:15:14.217Z,59.88
2022-12-08T14:17:53.464Z,60.11
2022-12-08T14:20:26.055Z,60.13
2022-12-08T14:22:56.067Z,59.93
2022-12-08T14:25:28.022Z,59.76
2022-12-08T14:28:00.690Z,59.83
2022-12-08T14:30:34.137Z,59.93
2022-12-08T14:33:05.532Z,59.77
2022-12-08T14:35:37.199Z,60.19
2022-12-08T14:38:11.040Z,64.99
2022-12-08T14:40:41.595Z,66.30
2022-12-08T14:43:17.526Z,65.01
2022-12-08T14:45:54.031Z,64.36
2022-12-08T14:48:25.471Z,63.97
2022-12-08T14:51:05.642Z,64.02
2022-12-08T14:53:40.022Z,63.82
2022-12-08T14:56:13.290Z,64.38
2022-12-08T14:58:42.851Z,64.50
2022-12-08T15:01:17.457Z,64.33
2022-12-08T15:03:50.923Z,64.06
2022-12-08T15:06:22.295Z,64.44
2022-12-08T15:08:58.778Z,64.48
2022-12-08T15:11:37.097Z,65.05
2022-12-08T15:14:05.924Z,64.48
2022-12-08T15:16:44.088Z,64.92
2022-12-08T15:19:19.847Z,65.46
2022-12-08T15:21:48.578Z,66.28
2022-12-08T15:24:18.306Z,66.51
2022-12-08T15:26:49.186Z,67.08
2022-12-08T15:29:22.673Z,67.06
2022-12-08T15:31:54.492Z,66.92
2022-12-08T15:34:23.743Z,67.31
2022-12-08T15:36:54.539Z,67.80
2022-12-08T15:39:33.029Z,67.49
2022-12-08T15:42:02.931Z,67.00
2022-12-08T15:44:33.077Z,67.10
2022-12-08T15:47:03.566Z,67.04
2022-12-08T15:49:32.637Z,67.19
2022-12-08T15:52:11.082Z,66.71
2022-12-08T15:54:40.454Z,66.05
2022-12-08T15:57:30.028Z,66.08
2022-12-08T16:09:13.241Z,65.23
2022-12-08T16:12:09.592Z,65.33
2022-12-08T16:17:30.671Z,67.48
2022-12-08T16:20:00.963Z,66.57
2022-12-08T16:25:22.674Z,65.69
2022-12-08T16:28:03.202Z,65.39
2022-12-08T16:30:34.797Z,65.07
2022-12-08T16:33:03.663Z,64.68
2022-12-08T16:35:33.514Z,64.40
2022-12-08T16:38:02.304Z,63.86
2022-12-08T16:40:31.284Z,63.88
2022-12-08T16:42:59.424Z,63.46
2022-12-08T16:45:30.976Z,63.46
2022-12-08T16:48:01.876Z,63.17
2022-12-08T16:50:32.238Z,62.86
2022-12-08T16:53:04.648Z,62.87
2022-12-08T16:55:35.167Z,63.14
2022-12-08T16:58:05.051Z,62.88
2022-12-08T17:00:37.264Z,63.50
2022-12-08T17:03:08.394Z,63.38
2022-12-08T17:05:37.439Z,63.60
2022-12-08T17:08:08.527Z,63.41
2022-12-08T17:10:39.774Z,63.36
2022-12-08T17:13:08.798Z,63.33
2022-12-08T17:15:37.485Z,63.41
2022-12-08T17:18:06.462Z,63.27
2022-12-08T17:20:36.241Z,63.16
2022-12-08T17:23:04.984Z,62.90
2022-12-08T17:25:34.821Z,62.78
2022-12-08T17:28:03.619Z,62.87
2022-12-08T17:30:32.062Z,63.08
2022-12-08T17:33:01.168Z,63.27
2022-12-08T17:35:29.766Z,63.07
2022-12-08T17:37:58.649Z,62.71
2022-12-08T17:40:28.461Z,62.70
2022-12-08T17:42:58.619Z,62.69
2022-12-08T17:45:27.214Z,62.36
2022-12-08T17:47:56.165Z,63.13
2022-12-08T17:50:24.750Z,63.36
2022-12-08T17:52:53.773Z,62.86
2022-12-08T17:55:22.475Z,63.17
2022-12-08T17:57:51.230Z,63.05
2022-12-08T18:00:21.508Z,63.89
2022-12-08T18:02:50.456Z,64.54
2022-12-08T18:05:19.137Z,64.28
2022-12-08T18:07:47.910Z,64.07
2022-12-08T18:10:16.958Z,64.02
2022-12-08T18:12:46.106Z,63.55
2022-12-08T18:15:18.360Z,63.54
2022-12-08T18:17:48.653Z,63.17
2022-12-08T18:20:17.211Z,62.87
2022-12-08T18:22:46.443Z,63.10
2022-12-08T18:25:15.739Z,63.04
2022-12-08T18:27:44.501Z,62.84
2022-12-08T18:30:17.455Z,64.20
2022-12-08T18:32:51.705Z,66.42
2022-12-08T18:35:22.877Z,70.29
2022-12-08T18:37:51.731Z,72.13
2022-12-08T18:40:20.453Z,73.25
2022-12-08T18:42:49.251Z,74.59
2022-12-08T18:45:22.562Z,73.78
2022-12-08T18:47:53.584Z,73.60
2022-12-08T18:50:21.990Z,72.97
2022-12-08T18:52:50.878Z,71.14
2022-12-08T18:55:19.578Z,69.99
2022-12-08T18:57:48.733Z,69.42
2022-12-08T19:00:20.352Z,69.09
2022-12-08T19:02:49.410Z,68.76
2022-12-08T19:05:19.551Z,68.48
2022-12-08T19:07:48.493Z,67.53
2022-12-08T19:10:17.046Z,66.99
2022-12-08T19:12:46.056Z,66.18
2022-12-08T19:15:14.562Z,65.77
2022-12-08T19:17:43.427Z,65.93
2022-12-08T19:20:13.037Z,65.28
2022-12-08T19:22:43.615Z,65.28
2022-12-08T19:25:12.585Z,65.11
2022-12-08T19:27:41.900Z,64.68
2022-12-08T19:30:11.949Z,64.48
2022-12-08T19:32:42.010Z,64.54
2022-12-08T19:35:10.874Z,63.78
2022-12-08T19:37:40.082Z,63.63
2022-12-08T19:40:31.112Z,63.51
2022-12-08T19:43:17.488Z,64.18
2022-12-08T19:45:46.380Z,64.05
2022-12-08T19:48:15.686Z,64.59
2022-12-08T19:50:44.296Z,64.48
2022-12-08T19:53:15.305Z,64.21
2022-12-08T19:55:46.059Z,64.66
2022-12-08T19:58:15.470Z,64.73
2022-12-08T20:00:45.723Z,64.62
2022-12-08T20:03:17.176Z,64.32
2022-12-08T20:05:46.681Z,64.26
2022-12-08T20:08:16.127Z,63.78
2022-12-08T20:10:46.840Z,63.87
2022-12-08T20:13:33.356Z,63.81
2022-12-08T20:16:02.757Z,63.39
2022-12-08T20:18:31.728Z,63.29
2022-12-08T20:21:00.718Z,63.53
2022-12-08T20:23:29.744Z,63.49
2022-12-08T20:26:00.575Z,63.08
2022-12-08T20:28:29.342Z,63.28
2022-12-08T20:30:58.051Z,62.81
2022-12-08T20:33:27.169Z,63.36
2022-12-08T20:36:00.321Z,63.04
2022-12-08T20:38:29.928Z,62.83
2022-12-08T20:41:00.774Z,63.05
2022-12-08T20:43:29.571Z,63.35
2022-12-08T20:45:58.118Z,62.73
2022-12-08T20:48:27.262Z,62.58
2022-12-08T20:50:55.946Z,62.70
2022-12-08T20:53:24.812Z,63.23
2022-12-08T20:55:53.596Z,63.27
2022-12-08T20:58:24.354Z,63.69
2022-12-08T21:00:52.898Z,63.28
2022-12-08T21:03:21.883Z,62.95
2022-12-08T21:05:51.481Z,63.39
2022-12-08T21:08:20.839Z,63.24
2022-12-08T21:10:54.745Z,63.07
2022-12-08T21:13:25.346Z,63.16
2022-12-08T21:15:54.115Z,63.19
2022-12-08T21:18:23.006Z,62.81
2022-12-08T21:20:52.255Z,62.90
2022-12-08T21:23:21.176Z,62.17
2022-12-08T21:25:49.683Z,62.23
2022-12-08T21:28:18.514Z,62.25
2022-12-08T21:30:48.427Z,62.56
2022-12-08T21:33:17.835Z,62.40
2022-12-08T21:35:46.566Z,62.33
2022-12-08T21:38:15.461Z,62.17
2022-12-08T21:40:44.243Z,61.95
2022-12-08T21:43:14.621Z,61.86
2022-12-08T21:45:43.301Z,62.66
2022-12-08T21:48:13.754Z,62.88
2022-12-08T21:50:42.380Z,62.49
2022-12-08T21:53:11.262Z,63.75
2022-12-08T21:55:41.067Z,63.13
2022-12-08T21:58:10.048Z,63.14
2022-12-08T22:00:38.594Z,62.84
2022-12-08T22:03:08.317Z,62.76
2022-12-08T22:05:38.516Z,62.57
2022-12-08T22:08:07.772Z,62.54
2022-12-08T22:10:36.592Z,62.66
2022-12-08T22:13:05.900Z,62.55
2022-12-08T22:15:34.629Z,62.21
2022-12-08T22:18:03.683Z,63.12
2022-12-08T22:20:32.444Z,63.12
2022-12-08T22:23:02.725Z,63.10
2022-12-08T22:25:32.590Z,63.00
2022-12-08T22:28:01.222Z,63.03
2022-12-08T22:30:32.775Z,62.77
2022-12-08T22:33:04.611Z,62.48
2022-12-08T22:35:33.220Z,62.69
2022-12-08T22:38:03.467Z,62.48
2022-12-08T22:40:31.899Z,62.68
2022-12-08T22:43:00.729Z,63.20
2022-12-08T22:45:29.298Z,64.19
2022-12-08T22:47:58.287Z,65.80
2022-12-08T22:50:26.971Z,65.75
2022-12-08T22:52:55.780Z,66.83
2022-12-08T22:55:25.671Z,65.80
2022-12-08T22:57:54.621Z,65.56
2022-12-08T23:00:23.242Z,64.52
2022-12-08T23:02:52.120Z,64.05
2022-12-08T23:05:20.750Z,63.45
2022-12-08T23:07:51.532Z,63.00
2022-12-08T23:10:20.500Z,62.74
2022-12-08T23:12:50.603Z,62.87
2022-12-08T23:15:19.115Z,62.90
2022-12-08T23:17:48.102Z,62.81
2022-12-08T23:20:18.678Z,62.30
2022-12-08T23:22:47.578Z,62.27
2022-12-08T23:25:18.504Z,62.06
2022-12-08T23:27:48.155Z,62.04
2022-12-08T23:30:18.605Z,61.97
2022-12-08T23:32:47.387Z,61.54
2022-12-08T23:35:15.847Z,60.94
2022-12-08T23:37:44.655Z,60.51
2022-12-08T23:40:13.721Z,60.40
2022-12-08T23:42:42.544Z,60.21
2022-12-08T23:45:12.061Z,59.81
2022-12-08T23:47:42.280Z,59.48
2022-12-08T23:50:11.720Z,59.42
2022-12-08T23:52:41.081Z,59.05
2022-12-08T23:55:11.184Z,58.59
2022-12-08T23:57:40.079Z,58.83
